sensor_id;sensor_type;location;lat;lon;timestamp;P1;durP1;ratioP1;P2;durP2;ratioP2
7330;SDS011;3706;49.198;7.064;2023-11-21T00:01:45;1.25;;;1.15;;
7330;SDS011;3706;49.198;7.064;2023-11-21T00:05:18;1.42;;;1.27;;
7330;SDS011;3706;49.198;7.064;2023-11-21T00:09:00;1.05;;;1.05;;
7330;SDS011;3706;49.198;7.064;2023-11-21T00:12:39;1.83;;;1.25;;
7330;SDS011;3706;49.198;7.064;2023-11-21T00:16:14;0.88;;;0.85;;
7330;SDS011;3706;49.198;7.064;2023-11-21T00:19:45;2.25;;;1.48;;
7330;SDS011;3706;49.198;7.064;2023-11-21T00:23:25;1.70;;;1.02;;
7330;SDS011;3706;49.198;7.064;2023-11-21T00:27:04;1.33;;;1.10;;
7330;SDS011;3706;49.198;7.064;2023-11-21T00:30:39;1.90;;;0.88;;
7330;SDS011;3706;49.198;7.064;2023-11-21T00:34:11;1.20;;;0.95;;
7330;SDS011;3706;49.198;7.064;2023-11-21T00:37:50;12.60;;;1.45;;
7330;SDS011;3706;49.198;7.064;2023-11-21T00:41:30;1.90;;;0.93;;
7330;SDS011;3706;49.198;7.064;2023-11-21T00:45:05;2.28;;;0.95;;
7330;SDS011;3706;49.198;7.064;2023-11-21T00:48:37;2.05;;;1.48;;
7330;SDS011;3706;49.198;7.064;2023-11-21T00:52:16;14.75;;;1.73;;
7330;SDS011;3706;49.198;7.064;2023-11-21T00:55:55;2.45;;;1.15;;
7330;SDS011;3706;49.198;7.064;2023-11-21T00:59:31;3.08;;;1.65;;
7330;SDS011;3706;49.198;7.064;2023-11-21T01:03:02;1.88;;;1.65;;
7330;SDS011;3706;49.198;7.064;2023-11-21T01:06:41;1.45;;;1.15;;
7330;SDS011;3706;49.198;7.064;2023-11-21T01:10:21;3.20;;;1.35;;
7330;SDS011;3706;49.198;7.064;2023-11-21T01:13:56;1.15;;;1.00;;
7330;SDS011;3706;49.198;7.064;2023-11-21T01:17:30;0.93;;;0.90;;
7330;SDS011;3706;49.198;7.064;2023-11-21T01:21:11;2.47;;;2.28;;
7330;SDS011;3706;49.198;7.064;2023-11-21T01:24:49;1.58;;;1.27;;
7330;SDS011;3706;49.198;7.064;2023-11-21T01:28:24;2.95;;;1.83;;
7330;SDS011;3706;49.198;7.064;2023-11-21T01:31:55;1.63;;;1.45;;
7330;SDS011;3706;49.198;7.064;2023-11-21T01:35:36;2.40;;;1.80;;
7330;SDS011;3706;49.198;7.064;2023-11-21T01:39:15;6.15;;;1.40;;
7330;SDS011;3706;49.198;7.064;2023-11-21T01:42:56;1.70;;;1.52;;
7330;SDS011;3706;49.198;7.064;2023-11-21T01:46:28;2.30;;;1.75;;
7330;SDS011;3706;49.198;7.064;2023-11-21T01:50:08;2.13;;;1.65;;
7330;SDS011;3706;49.198;7.064;2023-11-21T01:53:51;3.50;;;1.25;;
7330;SDS011;3706;49.198;7.064;2023-11-21T01:57:25;1.33;;;1.13;;
7330;SDS011;3706;49.198;7.064;2023-11-21T02:00:57;4.65;;;2.20;;
7330;SDS011;3706;49.198;7.064;2023-11-21T02:04:36;2.00;;;1.70;;
7330;SDS011;3706;49.198;7.064;2023-11-21T02:08:15;2.13;;;1.92;;
7330;SDS011;3706;49.198;7.064;2023-11-21T02:11:51;2.13;;;1.95;;
7330;SDS011;3706;49.198;7.064;2023-11-21T02:15:23;4.00;;;2.08;;
7330;SDS011;3706;49.198;7.064;2023-11-21T02:19:06;2.85;;;2.20;;
7330;SDS011;3706;49.198;7.064;2023-11-21T02:22:52;2.33;;;2.15;;
7330;SDS011;3706;49.198;7.064;2023-11-21T02:26:31;1.73;;;1.60;;
7330;SDS011;3706;49.198;7.064;2023-11-21T02:30:02;3.20;;;1.73;;
7330;SDS011;3706;49.198;7.064;2023-11-21T02:33:42;2.40;;;2.15;;
7330;SDS011;3706;49.198;7.064;2023-11-21T02:37:20;4.43;;;2.72;;
7330;SDS011;3706;49.198;7.064;2023-11-21T02:40:57;2.90;;;2.53;;
7330;SDS011;3706;49.198;7.064;2023-11-21T02:44:28;2.72;;;2.28;;
7330;SDS011;3706;49.198;7.064;2023-11-21T02:48:07;2.05;;;1.85;;
7330;SDS011;3706;49.198;7.064;2023-11-21T02:51:46;5.18;;;2.90;;
7330;SDS011;3706;49.198;7.064;2023-11-21T02:55:20;2.85;;;2.53;;
7330;SDS011;3706;49.198;7.064;2023-11-21T02:58:56;2.90;;;1.83;;
7330;SDS011;3706;49.198;7.064;2023-11-21T03:02:35;1.65;;;1.50;;
7330;SDS011;3706;49.198;7.064;2023-11-21T03:06:15;1.83;;;1.48;;
7330;SDS011;3706;49.198;7.064;2023-11-21T03:09:49;7.20;;;2.30;;
7330;SDS011;3706;49.198;7.064;2023-11-21T03:13:21;2.22;;;2.03;;
7330;SDS011;3706;49.198;7.064;2023-11-21T03:17:01;2.03;;;1.67;;
7330;SDS011;3706;49.198;7.064;2023-11-21T03:20:43;3.17;;;2.72;;
7330;SDS011;3706;49.198;7.064;2023-11-21T03:24:18;2.88;;;2.25;;
7330;SDS011;3706;49.198;7.064;2023-11-21T03:27:51;4.07;;;2.20;;
7330;SDS011;3706;49.198;7.064;2023-11-21T03:31:31;4.38;;;2.67;;
7330;SDS011;3706;49.198;7.064;2023-11-21T03:35:12;4.85;;;2.03;;
7330;SDS011;3706;49.198;7.064;2023-11-21T03:38:47;2.25;;;1.77;;
7330;SDS011;3706;49.198;7.064;2023-11-21T03:42:19;2.45;;;2.17;;
7330;SDS011;3706;49.198;7.064;2023-11-21T03:45:58;2.13;;;1.52;;
7330;SDS011;3706;49.198;7.064;2023-11-21T03:49:37;2.33;;;2.05;;
7330;SDS011;3706;49.198;7.064;2023-11-21T03:53:12;2.05;;;1.73;;
7330;SDS011;3706;49.198;7.064;2023-11-21T03:56:44;3.67;;;2.05;;
7330;SDS011;3706;49.198;7.064;2023-11-21T04:00:22;3.78;;;2.97;;
7330;SDS011;3706;49.198;7.064;2023-11-21T04:04:03;3.40;;;2.22;;
7330;SDS011;3706;49.198;7.064;2023-11-21T04:07:38;5.05;;;3.08;;
7330;SDS011;3706;49.198;7.064;2023-11-21T04:11:11;2.58;;;2.38;;
7330;SDS011;3706;49.198;7.064;2023-11-21T04:14:50;2.63;;;1.73;;
7330;SDS011;3706;49.198;7.064;2023-11-21T04:18:29;11.35;;;3.40;;
7330;SDS011;3706;49.198;7.064;2023-11-21T04:22:03;4.60;;;3.45;;
7330;SDS011;3706;49.198;7.064;2023-11-21T04:25:35;10.52;;;3.70;;
7330;SDS011;3706;49.198;7.064;2023-11-21T04:29:15;9.05;;;4.18;;
7330;SDS011;3706;49.198;7.064;2023-11-21T04:32:54;5.25;;;3.78;;
7330;SDS011;3706;49.198;7.064;2023-11-21T04:36:28;6.75;;;3.17;;
7330;SDS011;3706;49.198;7.064;2023-11-21T04:40:00;5.55;;;3.47;;
7330;SDS011;3706;49.198;7.064;2023-11-21T04:43:42;3.92;;;3.47;;
7330;SDS011;3706;49.198;7.064;2023-11-21T04:47:23;4.28;;;3.60;;
7330;SDS011;3706;49.198;7.064;2023-11-21T04:50:58;4.20;;;3.65;;
7330;SDS011;3706;49.198;7.064;2023-11-21T04:54:30;10.35;;;3.60;;
7330;SDS011;3706;49.198;7.064;2023-11-21T04:58:09;5.28;;;3.80;;
7330;SDS011;3706;49.198;7.064;2023-11-21T05:01:49;6.00;;;4.00;;
7330;SDS011;3706;49.198;7.064;2023-11-21T05:05:24;4.85;;;3.88;;
7330;SDS011;3706;49.198;7.064;2023-11-21T05:08:55;4.70;;;3.25;;
7330;SDS011;3706;49.198;7.064;2023-11-21T05:12:35;3.20;;;2.85;;
7330;SDS011;3706;49.198;7.064;2023-11-21T05:16:15;5.40;;;3.60;;
7330;SDS011;3706;49.198;7.064;2023-11-21T05:19:49;4.32;;;3.33;;
7330;SDS011;3706;49.198;7.064;2023-11-21T05:23:22;4.53;;;3.25;;
7330;SDS011;3706;49.198;7.064;2023-11-21T05:27:01;2.97;;;2.47;;
7330;SDS011;3706;49.198;7.064;2023-11-21T05:30:40;6.40;;;2.83;;
7330;SDS011;3706;49.198;7.064;2023-11-21T05:34:15;6.43;;;4.35;;
7330;SDS011;3706;49.198;7.064;2023-11-21T05:37:46;4.28;;;3.80;;
7330;SDS011;3706;49.198;7.064;2023-11-21T05:41:26;4.38;;;3.50;;
7330;SDS011;3706;49.198;7.064;2023-11-21T05:45:05;5.30;;;2.75;;
7330;SDS011;3706;49.198;7.064;2023-11-21T05:48:42;5.13;;;3.90;;
7330;SDS011;3706;49.198;7.064;2023-11-21T05:52:14;3.03;;;2.65;;
7330;SDS011;3706;49.198;7.064;2023-11-21T05:55:53;4.95;;;2.88;;
7330;SDS011;3706;49.198;7.064;2023-11-21T05:59:34;5.40;;;3.95;;
7330;SDS011;3706;49.198;7.064;2023-11-21T06:03:09;5.30;;;3.60;;
7330;SDS011;3706;49.198;7.064;2023-11-21T06:06:40;9.13;;;2.88;;
7330;SDS011;3706;49.198;7.064;2023-11-21T06:10:19;5.30;;;3.50;;
7330;SDS011;3706;49.198;7.064;2023-11-21T06:13:59;3.97;;;3.60;;
7330;SDS011;3706;49.198;7.064;2023-11-21T06:17:35;5.30;;;3.65;;
7330;SDS011;3706;49.198;7.064;2023-11-21T06:21:09;8.35;;;4.32;;
7330;SDS011;3706;49.198;7.064;2023-11-21T06:24:47;4.32;;;3.85;;
7330;SDS011;3706;49.198;7.064;2023-11-21T06:28:26;4.00;;;2.65;;
7330;SDS011;3706;49.198;7.064;2023-11-21T06:32:01;6.13;;;3.25;;
7330;SDS011;3706;49.198;7.064;2023-11-21T06:35:36;4.97;;;3.88;;
7330;SDS011;3706;49.198;7.064;2023-11-21T06:39:15;5.22;;;4.13;;
7330;SDS011;3706;49.198;7.064;2023-11-21T06:42:54;4.38;;;3.97;;
7330;SDS011;3706;49.198;7.064;2023-11-21T06:46:31;3.70;;;2.25;;
7330;SDS011;3706;49.198;7.064;2023-11-21T06:50:03;4.95;;;3.35;;
7330;SDS011;3706;49.198;7.064;2023-11-21T06:53:43;3.53;;;3.10;;
7330;SDS011;3706;49.198;7.064;2023-11-21T06:57:22;4.90;;;4.25;;
7330;SDS011;3706;49.198;7.064;2023-11-21T07:00:57;2.78;;;2.42;;
7330;SDS011;3706;49.198;7.064;2023-11-21T07:04:28;6.90;;;2.65;;
7330;SDS011;3706;49.198;7.064;2023-11-21T07:08:07;4.82;;;3.47;;
7330;SDS011;3706;49.198;7.064;2023-11-21T07:11:48;5.35;;;3.40;;
7330;SDS011;3706;49.198;7.064;2023-11-21T07:15:23;4.45;;;2.85;;
7330;SDS011;3706;49.198;7.064;2023-11-21T07:18:55;5.13;;;3.00;;
7330;SDS011;3706;49.198;7.064;2023-11-21T07:22:34;3.78;;;2.20;;
7330;SDS011;3706;49.198;7.064;2023-11-21T07:26:12;4.65;;;2.78;;
7330;SDS011;3706;49.198;7.064;2023-11-21T07:29:48;7.55;;;3.25;;
7330;SDS011;3706;49.198;7.064;2023-11-21T07:33:19;6.72;;;3.08;;
7330;SDS011;3706;49.198;7.064;2023-11-21T07:36:58;3.95;;;2.70;;
7330;SDS011;3706;49.198;7.064;2023-11-21T07:40:37;6.55;;;4.47;;
7330;SDS011;3706;49.198;7.064;2023-11-21T07:44:11;4.78;;;4.32;;
7330;SDS011;3706;49.198;7.064;2023-11-21T07:47:45;6.57;;;3.67;;
7330;SDS011;3706;49.198;7.064;2023-11-21T07:51:23;9.70;;;3.85;;
7330;SDS011;3706;49.198;7.064;2023-11-21T07:55:02;5.57;;;3.08;;
7330;SDS011;3706;49.198;7.064;2023-11-21T07:58:37;3.33;;;3.03;;
7330;SDS011;3706;49.198;7.064;2023-11-21T08:02:09;4.05;;;3.33;;
7330;SDS011;3706;49.198;7.064;2023-11-21T08:05:49;8.65;;;3.00;;
7330;SDS011;3706;49.198;7.064;2023-11-21T08:09:27;3.65;;;2.88;;
7330;SDS011;3706;49.198;7.064;2023-11-21T08:13:02;3.58;;;2.97;;
7330;SDS011;3706;49.198;7.064;2023-11-21T08:16:34;2.97;;;2.28;;
7330;SDS011;3706;49.198;7.064;2023-11-21T08:20:13;11.27;;;2.95;;
7330;SDS011;3706;49.198;7.064;2023-11-21T08:23:55;5.63;;;3.30;;
7330;SDS011;3706;49.198;7.064;2023-11-21T08:27:30;5.35;;;3.40;;
7330;SDS011;3706;49.198;7.064;2023-11-21T08:31:01;3.90;;;2.78;;
7330;SDS011;3706;49.198;7.064;2023-11-21T08:34:41;4.97;;;3.35;;
7330;SDS011;3706;49.198;7.064;2023-11-21T08:38:21;3.35;;;2.80;;
7330;SDS011;3706;49.198;7.064;2023-11-21T08:41:57;2.28;;;1.98;;
7330;SDS011;3706;49.198;7.064;2023-11-21T08:45:29;4.32;;;2.85;;
7330;SDS011;3706;49.198;7.064;2023-11-21T08:49:07;2.92;;;2.67;;
7330;SDS011;3706;49.198;7.064;2023-11-21T08:52:47;5.32;;;2.22;;
7330;SDS011;3706;49.198;7.064;2023-11-21T08:56:21;2.80;;;2.35;;
7330;SDS011;3706;49.198;7.064;2023-11-21T08:59:55;3.47;;;3.15;;
7330;SDS011;3706;49.198;7.064;2023-11-21T09:03:33;3.60;;;2.10;;
7330;SDS011;3706;49.198;7.064;2023-11-21T09:07:12;2.63;;;2.47;;
7330;SDS011;3706;49.198;7.064;2023-11-21T09:10:46;3.20;;;2.85;;
7330;SDS011;3706;49.198;7.064;2023-11-21T09:14:18;2.47;;;2.25;;
7330;SDS011;3706;49.198;7.064;2023-11-21T09:17:58;4.18;;;2.67;;
7330;SDS011;3706;49.198;7.064;2023-11-21T09:21:38;2.40;;;2.17;;
7330;SDS011;3706;49.198;7.064;2023-11-21T09:25:12;2.67;;;2.33;;
7330;SDS011;3706;49.198;7.064;2023-11-21T09:28:43;3.63;;;3.22;;
7330;SDS011;3706;49.198;7.064;2023-11-21T09:32:24;2.13;;;1.92;;
7330;SDS011;3706;49.198;7.064;2023-11-21T09:36:05;3.83;;;2.60;;
7330;SDS011;3706;49.198;7.064;2023-11-21T09:39:45;3.08;;;2.05;;
7330;SDS011;3706;49.198;7.064;2023-11-21T09:43:17;1.88;;;1.70;;
7330;SDS011;3706;49.198;7.064;2023-11-21T09:46:56;2.50;;;1.40;;
7330;SDS011;3706;49.198;7.064;2023-11-21T09:50:39;1.92;;;1.70;;
7330;SDS011;3706;49.198;7.064;2023-11-21T09:54:16;2.63;;;2.08;;
7330;SDS011;3706;49.198;7.064;2023-11-21T09:57:49;2.80;;;2.08;;
7330;SDS011;3706;49.198;7.064;2023-11-21T10:01:28;1.63;;;1.42;;
7330;SDS011;3706;49.198;7.064;2023-11-21T10:05:07;1.33;;;1.20;;
7330;SDS011;3706;49.198;7.064;2023-11-21T10:08:44;1.40;;;1.27;;
7330;SDS011;3706;49.198;7.064;2023-11-21T10:12:17;1.75;;;1.48;;
7330;SDS011;3706;49.198;7.064;2023-11-21T10:15:58;0.95;;;0.90;;
7330;SDS011;3706;49.198;7.064;2023-11-21T10:19:42;3.47;;;1.85;;
7330;SDS011;3706;49.198;7.064;2023-11-21T10:23:17;1.42;;;1.33;;
7330;SDS011;3706;49.198;7.064;2023-11-21T10:26:50;2.20;;;1.42;;
7330;SDS011;3706;49.198;7.064;2023-11-21T10:30:33;1.15;;;1.05;;
7330;SDS011;3706;49.198;7.064;2023-11-21T10:34:14;1.63;;;1.42;;
7330;SDS011;3706;49.198;7.064;2023-11-21T10:37:50;2.08;;;1.40;;
7330;SDS011;3706;49.198;7.064;2023-11-21T10:41:32;2.40;;;1.70;;
7330;SDS011;3706;49.198;7.064;2023-11-21T10:45:12;0.90;;;0.85;;
7330;SDS011;3706;49.198;7.064;2023-11-21T10:48:53;2.58;;;1.23;;
7330;SDS011;3706;49.198;7.064;2023-11-21T10:52:29;1.15;;;0.95;;
7330;SDS011;3706;49.198;7.064;2023-11-21T10:56:01;1.42;;;0.63;;
7330;SDS011;3706;49.198;7.064;2023-11-21T10:59:42;1.30;;;1.23;;
7330;SDS011;3706;49.198;7.064;2023-11-21T11:03:24;1.20;;;1.02;;
7330;SDS011;3706;49.198;7.064;2023-11-21T11:07:01;0.93;;;0.80;;
7330;SDS011;3706;49.198;7.064;2023-11-21T11:10:33;1.42;;;1.15;;
7330;SDS011;3706;49.198;7.064;2023-11-21T11:14:12;1.92;;;1.80;;
7330;SDS011;3706;49.198;7.064;2023-11-21T11:17:52;0.82;;;0.75;;
7330;SDS011;3706;49.198;7.064;2023-11-21T11:21:31;3.45;;;1.25;;
7330;SDS011;3706;49.198;7.064;2023-11-21T11:29:14;1.25;;;1.02;;
7330;SDS011;3706;49.198;7.064;2023-11-21T11:32:58;3.80;;;1.98;;
7330;SDS011;3706;49.198;7.064;2023-11-21T11:36:42;2.03;;;1.20;;
7330;SDS011;3706;49.198;7.064;2023-11-21T11:40:19;1.02;;;0.88;;
7330;SDS011;3706;49.198;7.064;2023-11-21T11:43:59;1.25;;;1.13;;
7330;SDS011;3706;49.198;7.064;2023-11-21T11:47:38;1.27;;;1.13;;
7330;SDS011;3706;49.198;7.064;2023-11-21T11:51:13;5.55;;;1.10;;
7330;SDS011;3706;49.198;7.064;2023-11-21T11:54:46;1.40;;;1.27;;
7330;SDS011;3706;49.198;7.064;2023-11-21T11:58:35;1.10;;;0.95;;
7330;SDS011;3706;49.198;7.064;2023-11-21T12:02:18;1.48;;;1.38;;
7330;SDS011;3706;49.198;7.064;2023-11-21T12:05:57;3.67;;;1.95;;
7330;SDS011;3706;49.198;7.064;2023-11-21T12:09:28;1.60;;;1.13;;
7330;SDS011;3706;49.198;7.064;2023-11-21T12:13:10;1.40;;;1.30;;
7330;SDS011;3706;49.198;7.064;2023-11-21T12:16:49;1.90;;;1.00;;
7330;SDS011;3706;49.198;7.064;2023-11-21T12:20:27;1.83;;;1.65;;
7330;SDS011;3706;49.198;7.064;2023-11-21T12:23:58;3.40;;;3.08;;
7330;SDS011;3706;49.198;7.064;2023-11-21T12:27:37;2.78;;;1.95;;
7330;SDS011;3706;49.198;7.064;2023-11-21T12:31:16;1.77;;;1.48;;
7330;SDS011;3706;49.198;7.064;2023-11-21T12:34:51;2.00;;;1.83;;
7330;SDS011;3706;49.198;7.064;2023-11-21T12:38:24;1.88;;;1.75;;
7330;SDS011;3706;49.198;7.064;2023-11-21T12:42:03;2.70;;;1.52;;
7330;SDS011;3706;49.198;7.064;2023-11-21T12:45:43;1.55;;;1.45;;
7330;SDS011;3706;49.198;7.064;2023-11-21T12:49:17;2.78;;;1.85;;
7330;SDS011;3706;49.198;7.064;2023-11-21T12:52:51;1.83;;;1.63;;
7330;SDS011;3706;49.198;7.064;2023-11-21T12:56:32;2.75;;;2.30;;
7330;SDS011;3706;49.198;7.064;2023-11-21T13:00:11;2.10;;;1.70;;
7330;SDS011;3706;49.198;7.064;2023-11-21T13:03:59;1.92;;;1.55;;
7330;SDS011;3706;49.198;7.064;2023-11-21T13:07:40;1.70;;;1.42;;
7330;SDS011;3706;49.198;7.064;2023-11-21T13:11:23;1.67;;;1.52;;
7330;SDS011;3706;49.198;7.064;2023-11-21T13:15:06;1.58;;;1.48;;
7330;SDS011;3706;49.198;7.064;2023-11-21T13:18:43;2.05;;;1.67;;
7330;SDS011;3706;49.198;7.064;2023-11-21T13:22:14;4.15;;;1.95;;
7330;SDS011;3706;49.198;7.064;2023-11-21T13:25:55;2.42;;;2.03;;
7330;SDS011;3706;49.198;7.064;2023-11-21T13:29:35;0.98;;;0.98;;
7330;SDS011;3706;49.198;7.064;2023-11-21T13:33:10;3.15;;;1.92;;
7330;SDS011;3706;49.198;7.064;2023-11-21T13:36:47;2.22;;;1.30;;
7330;SDS011;3706;49.198;7.064;2023-11-21T13:40:29;1.98;;;1.83;;
7330;SDS011;3706;49.198;7.064;2023-11-21T13:44:07;3.58;;;2.17;;
7330;SDS011;3706;49.198;7.064;2023-11-21T13:47:49;1.67;;;1.45;;
7330;SDS011;3706;49.198;7.064;2023-11-21T13:51:29;5.75;;;2.83;;
7330;SDS011;3706;49.198;7.064;2023-11-21T13:55:16;2.13;;;1.80;;
7330;SDS011;3706;49.198;7.064;2023-11-21T13:58:55;2.97;;;2.47;;
7330;SDS011;3706;49.198;7.064;2023-11-21T14:02:31;3.08;;;2.25;;
7330;SDS011;3706;49.198;7.064;2023-11-21T14:06:08;3.75;;;2.05;;
7330;SDS011;3706;49.198;7.064;2023-11-21T14:09:59;2.22;;;2.03;;
7330;SDS011;3706;49.198;7.064;2023-11-21T14:13:37;2.45;;;2.05;;
7330;SDS011;3706;49.198;7.064;2023-11-21T14:17:18;6.70;;;2.85;;
7330;SDS011;3706;49.198;7.064;2023-11-21T14:20:51;4.40;;;3.13;;
7330;SDS011;3706;49.198;7.064;2023-11-21T14:24:30;3.90;;;2.53;;
7330;SDS011;3706;49.198;7.064;2023-11-21T14:28:11;6.05;;;3.03;;
7330;SDS011;3706;49.198;7.064;2023-11-21T14:31:46;3.35;;;2.58;;
7330;SDS011;3706;49.198;7.064;2023-11-21T14:35:18;2.45;;;2.25;;
7330;SDS011;3706;49.198;7.064;2023-11-21T14:38:56;6.47;;;2.42;;
7330;SDS011;3706;49.198;7.064;2023-11-21T14:42:36;2.03;;;1.88;;
7330;SDS011;3706;49.198;7.064;2023-11-21T14:46:13;4.25;;;2.65;;
7330;SDS011;3706;49.198;7.064;2023-11-21T14:49:46;9.35;;;6.18;;
7330;SDS011;3706;49.198;7.064;2023-11-21T14:53:30;5.80;;;3.55;;
7330;SDS011;3706;49.198;7.064;2023-11-21T14:57:19;10.52;;;3.65;;
7330;SDS011;3706;49.198;7.064;2023-11-21T15:00:55;3.45;;;2.67;;
7330;SDS011;3706;49.198;7.064;2023-11-21T15:04:30;4.25;;;3.22;;
7330;SDS011;3706;49.198;7.064;2023-11-21T15:08:12;6.47;;;3.05;;
7330;SDS011;3706;49.198;7.064;2023-11-21T15:11:58;5.15;;;3.58;;
7330;SDS011;3706;49.198;7.064;2023-11-21T15:15:42;2.67;;;1.92;;
7330;SDS011;3706;49.198;7.064;2023-11-21T15:19:13;8.73;;;3.45;;
7330;SDS011;3706;49.198;7.064;2023-11-21T15:22:56;3.35;;;2.55;;
7330;SDS011;3706;49.198;7.064;2023-11-21T15:26:35;3.67;;;3.35;;
7330;SDS011;3706;49.198;7.064;2023-11-21T15:30:09;4.20;;;3.55;;
7330;SDS011;3706;49.198;7.064;2023-11-21T15:33:41;3.40;;;3.08;;
7330;SDS011;3706;49.198;7.064;2023-11-21T15:37:20;4.60;;;3.53;;
7330;SDS011;3706;49.198;7.064;2023-11-21T15:41:01;7.13;;;4.97;;
7330;SDS011;3706;49.198;7.064;2023-11-21T15:44:36;8.52;;;5.78;;
7330;SDS011;3706;49.198;7.064;2023-11-21T15:48:08;6.50;;;4.30;;
7330;SDS011;3706;49.198;7.064;2023-11-21T15:51:47;8.60;;;5.15;;
7330;SDS011;3706;49.198;7.064;2023-11-21T15:55:30;5.95;;;3.60;;
7330;SDS011;3706;49.198;7.064;2023-11-21T15:59:10;5.05;;;4.45;;
7330;SDS011;3706;49.198;7.064;2023-11-21T16:02:42;6.82;;;4.90;;
7330;SDS011;3706;49.198;7.064;2023-11-21T16:06:21;9.32;;;5.80;;
7330;SDS011;3706;49.198;7.064;2023-11-21T16:10:00;9.07;;;4.90;;
7330;SDS011;3706;49.198;7.064;2023-11-21T16:13:34;4.35;;;3.78;;
7330;SDS011;3706;49.198;7.064;2023-11-21T16:17:08;10.45;;;4.03;;
7330;SDS011;3706;49.198;7.064;2023-11-21T16:20:47;8.02;;;4.82;;
7330;SDS011;3706;49.198;7.064;2023-11-21T16:24:27;14.95;;;5.72;;
7330;SDS011;3706;49.198;7.064;2023-11-21T16:28:02;4.90;;;3.42;;
7330;SDS011;3706;49.198;7.064;2023-11-21T16:31:35;6.55;;;3.90;;
7330;SDS011;3706;49.198;7.064;2023-11-21T16:35:15;6.15;;;4.75;;
7330;SDS011;3706;49.198;7.064;2023-11-21T16:38:54;8.68;;;4.10;;
7330;SDS011;3706;49.198;7.064;2023-11-21T16:42:30;8.70;;;4.90;;
7330;SDS011;3706;49.198;7.064;2023-11-21T16:46:02;6.05;;;4.53;;
7330;SDS011;3706;49.198;7.064;2023-11-21T16:49:41;5.47;;;4.00;;
7330;SDS011;3706;49.198;7.064;2023-11-21T16:53:24;6.43;;;4.65;;
7330;SDS011;3706;49.198;7.064;2023-11-21T16:56:59;15.60;;;7.65;;
7330;SDS011;3706;49.198;7.064;2023-11-21T17:00:30;7.43;;;4.43;;
7330;SDS011;3706;49.198;7.064;2023-11-21T17:04:09;7.72;;;5.25;;
7330;SDS011;3706;49.198;7.064;2023-11-21T17:07:48;6.10;;;4.03;;
7330;SDS011;3706;49.198;7.064;2023-11-21T17:11:24;13.02;;;7.30;;
7330;SDS011;3706;49.198;7.064;2023-11-21T17:14:55;8.32;;;5.22;;
7330;SDS011;3706;49.198;7.064;2023-11-21T17:18:35;5.25;;;3.35;;
7330;SDS011;3706;49.198;7.064;2023-11-21T17:22:14;7.22;;;5.10;;
7330;SDS011;3706;49.198;7.064;2023-11-21T17:25:48;4.03;;;3.30;;
7330;SDS011;3706;49.198;7.064;2023-11-21T17:29:22;4.45;;;3.20;;
7330;SDS011;3706;49.198;7.064;2023-11-21T17:33:01;5.30;;;3.67;;
7330;SDS011;3706;49.198;7.064;2023-11-21T17:36:40;9.93;;;5.07;;
7330;SDS011;3706;49.198;7.064;2023-11-21T17:40:15;6.05;;;3.38;;
7330;SDS011;3706;49.198;7.064;2023-11-21T17:44:25;13.07;;;4.78;;
7330;SDS011;3706;49.198;7.064;2023-11-21T17:48:04;7.38;;;4.50;;
7330;SDS011;3706;49.198;7.064;2023-11-21T17:51:44;5.10;;;4.38;;
7330;SDS011;3706;49.198;7.064;2023-11-21T17:55:19;6.95;;;3.45;;
7330;SDS011;3706;49.198;7.064;2023-11-21T17:58:50;7.53;;;5.38;;
7330;SDS011;3706;49.198;7.064;2023-11-21T18:02:32;9.27;;;3.97;;
7330;SDS011;3706;49.198;7.064;2023-11-21T18:06:11;8.80;;;4.60;;
7330;SDS011;3706;49.198;7.064;2023-11-21T18:09:47;5.57;;;4.43;;
7330;SDS011;3706;49.198;7.064;2023-11-21T18:13:19;4.55;;;3.53;;
7330;SDS011;3706;49.198;7.064;2023-11-21T18:16:58;5.30;;;4.45;;
7330;SDS011;3706;49.198;7.064;2023-11-21T18:20:38;5.57;;;4.68;;
7330;SDS011;3706;49.198;7.064;2023-11-21T18:24:13;7.07;;;3.92;;
7330;SDS011;3706;49.198;7.064;2023-11-21T18:27:45;6.72;;;4.55;;
7330;SDS011;3706;49.198;7.064;2023-11-21T18:31:24;8.02;;;4.82;;
7330;SDS011;3706;49.198;7.064;2023-11-21T18:35:03;5.53;;;4.07;;
7330;SDS011;3706;49.198;7.064;2023-11-21T18:38:39;7.82;;;5.03;;
7330;SDS011;3706;49.198;7.064;2023-11-21T18:42:11;5.68;;;3.42;;
7330;SDS011;3706;49.198;7.064;2023-11-21T18:45:50;5.63;;;4.47;;
7330;SDS011;3706;49.198;7.064;2023-11-21T18:49:29;5.75;;;4.57;;
7330;SDS011;3706;49.198;7.064;2023-11-21T18:53:04;7.72;;;5.18;;
7330;SDS011;3706;49.198;7.064;2023-11-21T18:56:37;6.15;;;4.30;;
7330;SDS011;3706;49.198;7.064;2023-11-21T19:00:17;7.13;;;6.07;;
7330;SDS011;3706;49.198;7.064;2023-11-21T19:03:57;12.70;;;4.95;;
7330;SDS011;3706;49.198;7.064;2023-11-21T19:07:31;13.80;;;5.32;;
7330;SDS011;3706;49.198;7.064;2023-11-21T19:11:05;4.97;;;4.13;;
7330;SDS011;3706;49.198;7.064;2023-11-21T19:14:45;10.25;;;5.15;;
7330;SDS011;3706;49.198;7.064;2023-11-21T19:18:27;8.48;;;5.20;;
7330;SDS011;3706;49.198;7.064;2023-11-21T19:22:03;8.02;;;4.88;;
7330;SDS011;3706;49.198;7.064;2023-11-21T19:25:34;10.63;;;5.68;;
7330;SDS011;3706;49.198;7.064;2023-11-21T19:29:13;8.15;;;4.63;;
7330;SDS011;3706;49.198;7.064;2023-11-21T19:32:53;4.43;;;3.22;;
7330;SDS011;3706;49.198;7.064;2023-11-21T19:36:31;13.93;;;4.60;;
7330;SDS011;3706;49.198;7.064;2023-11-21T19:40:04;6.22;;;4.03;;
7330;SDS011;3706;49.198;7.064;2023-11-21T19:43:44;9.20;;;6.13;;
7330;SDS011;3706;49.198;7.064;2023-11-21T19:47:24;6.53;;;5.65;;
7330;SDS011;3706;49.198;7.064;2023-11-21T19:51:00;10.38;;;5.07;;
7330;SDS011;3706;49.198;7.064;2023-11-21T19:54:34;12.93;;;7.05;;
7330;SDS011;3706;49.198;7.064;2023-11-21T19:58:13;7.18;;;5.93;;
7330;SDS011;3706;49.198;7.064;2023-11-21T20:01:54;8.45;;;5.93;;
7330;SDS011;3706;49.198;7.064;2023-11-21T20:05:28;10.55;;;5.78;;
7330;SDS011;3706;49.198;7.064;2023-11-21T20:09:02;10.70;;;8.30;;
7330;SDS011;3706;49.198;7.064;2023-11-21T20:12:41;8.52;;;6.63;;
7330;SDS011;3706;49.198;7.064;2023-11-21T20:16:20;7.57;;;5.45;;
7330;SDS011;3706;49.198;7.064;2023-11-21T20:19:54;6.57;;;5.45;;
7330;SDS011;3706;49.198;7.064;2023-11-21T20:23:26;14.85;;;5.10;;
7330;SDS011;3706;49.198;7.064;2023-11-21T20:27:09;8.85;;;6.90;;
7330;SDS011;3706;49.198;7.064;2023-11-21T20:30:49;7.57;;;5.68;;
7330;SDS011;3706;49.198;7.064;2023-11-21T20:34:24;6.50;;;4.93;;
7330;SDS011;3706;49.198;7.064;2023-11-21T20:37:55;11.75;;;6.85;;
7330;SDS011;3706;49.198;7.064;2023-11-21T20:41:34;9.63;;;5.80;;
7330;SDS011;3706;49.198;7.064;2023-11-21T20:45:14;8.52;;;6.47;;
7330;SDS011;3706;49.198;7.064;2023-11-21T20:48:48;13.93;;;4.82;;
7330;SDS011;3706;49.198;7.064;2023-11-21T20:52:20;5.50;;;4.90;;
7330;SDS011;3706;49.198;7.064;2023-11-21T20:55:58;5.88;;;4.90;;
7330;SDS011;3706;49.198;7.064;2023-11-21T20:59:38;5.82;;;4.82;;
7330;SDS011;3706;49.198;7.064;2023-11-21T21:03:14;7.43;;;5.35;;
7330;SDS011;3706;49.198;7.064;2023-11-21T21:06:46;6.93;;;5.50;;
7330;SDS011;3706;49.198;7.064;2023-11-21T21:10:24;11.00;;;6.03;;
7330;SDS011;3706;49.198;7.064;2023-11-21T21:14:04;9.35;;;5.85;;
7330;SDS011;3706;49.198;7.064;2023-11-21T21:17:38;12.38;;;6.05;;
7330;SDS011;3706;49.198;7.064;2023-11-21T21:21:11;6.07;;;5.05;;
7330;SDS011;3706;49.198;7.064;2023-11-21T21:24:50;11.35;;;5.93;;
7330;SDS011;3706;49.198;7.064;2023-11-21T21:28:30;10.65;;;5.07;;
7330;SDS011;3706;49.198;7.064;2023-11-21T21:32:05;9.02;;;6.28;;
7330;SDS011;3706;49.198;7.064;2023-11-21T21:35:36;19.00;;;6.68;;
7330;SDS011;3706;49.198;7.064;2023-11-21T21:39:16;14.68;;;8.10;;
7330;SDS011;3706;49.198;7.064;2023-11-21T21:42:57;13.98;;;4.95;;
7330;SDS011;3706;49.198;7.064;2023-11-21T21:46:34;6.60;;;5.43;;
7330;SDS011;3706;49.198;7.064;2023-11-21T21:50:05;4.82;;;3.97;;
7330;SDS011;3706;49.198;7.064;2023-11-21T21:53:45;7.45;;;4.88;;
7330;SDS011;3706;49.198;7.064;2023-11-21T21:57:26;8.25;;;6.10;;
7330;SDS011;3706;49.198;7.064;2023-11-21T22:01:00;9.90;;;6.40;;
7330;SDS011;3706;49.198;7.064;2023-11-21T22:04:33;13.65;;;6.68;;
7330;SDS011;3706;49.198;7.064;2023-11-21T22:08:11;8.93;;;6.68;;
7330;SDS011;3706;49.198;7.064;2023-11-21T22:11:50;18.95;;;7.68;;
7330;SDS011;3706;49.198;7.064;2023-11-21T22:15:26;16.48;;;6.60;;
7330;SDS011;3706;49.198;7.064;2023-11-21T22:18:58;9.85;;;5.80;;
7330;SDS011;3706;49.198;7.064;2023-11-21T22:22:37;10.35;;;6.22;;
7330;SDS011;3706;49.198;7.064;2023-11-21T22:26:16;8.07;;;6.28;;
7330;SDS011;3706;49.198;7.064;2023-11-21T22:29:52;12.65;;;6.00;;
7330;SDS011;3706;49.198;7.064;2023-11-21T22:33:24;10.38;;;4.72;;